BEL1TE EBBR-LGKO
Flight info
| Callsign | BEL1TE |
|---|---|
| Flight time | N/A |
| Altitude | 35000 |
| Route | SOPOK Y863 ROPUV L607 EMGOD DCT BOMBI DCT DETEV DCT DINKU DCT BESNI DCT LATLO DCT OBEDI DCT PODET DCT SOMUN DCT NISVA Y505 NIKTI UN127 LMO UL618 MES UN139 LURUS UL995 KOPAR |
| Aircraft | A320/M-DE3FGHIJ1LORVWY/H |
Departure
| Time | 2026-05-07 06:47 |
|---|---|
| Airport | Brussels Airport (EBBR) |
Arrival
| Time | N/A |
|---|---|
| Airport | Kos International Airport "Ippokratis" (LGKO) |
| Time | Latitude | Longitude | Altitude | Speed | Heading |
|---|---|---|---|---|---|
| 2026-05-07 06:32 | 50.90350 | 4.48824 | 117 ft | 0 kts | 335° |
| 2026-05-07 06:39 | 50.90339 | 4.48832 | 120 ft | 4 kts | 342° |
| 2026-05-07 06:40 | 50.90313 | 4.48840 | 120 ft | 4 kts | 2° |
| 2026-05-07 06:40 | 50.90286 | 4.48833 | 120 ft | 4 kts | 22° |
| 2026-05-07 06:40 | 50.90264 | 4.48812 | 119 ft | 4 kts | 44° |
| 2026-05-07 06:40 | 50.90249 | 4.48783 | 122 ft | 1 kts | 65° |
| 2026-05-07 06:42 | 50.90254 | 4.48799 | 119 ft | 7 kts | 66° |
| 2026-05-07 06:42 | 50.90289 | 4.48928 | 122 ft | 15 kts | 66° |
| 2026-05-07 06:43 | 50.90332 | 4.49078 | 123 ft | 15 kts | 65° |
| 2026-05-07 06:43 | 50.90378 | 4.49235 | 124 ft | 16 kts | 65° |
| 2026-05-07 06:43 | 50.90427 | 4.49406 | 121 ft | 18 kts | 65° |
| 2026-05-07 06:43 | 50.90482 | 4.49586 | 122 ft | 18 kts | 52° |
| 2026-05-07 06:44 | 50.90603 | 4.49655 | 121 ft | 19 kts | 14° |
| 2026-05-07 06:44 | 50.90737 | 4.49709 | 122 ft | 20 kts | 14° |
| 2026-05-07 06:44 | 50.90877 | 4.49765 | 119 ft | 21 kts | 15° |
| 2026-05-07 06:44 | 50.91001 | 4.49882 | 118 ft | 22 kts | 31° |
| 2026-05-07 06:45 | 50.91080 | 4.49939 | 120 ft | 1 kts | 17° |
| 2026-05-07 06:45 | 50.91103 | 4.49942 | 119 ft | 7 kts | 355° |
| 2026-05-07 06:45 | 50.91132 | 4.49881 | 119 ft | 7 kts | 272° |
| 2026-05-07 06:45 | 50.91125 | 4.49839 | 117 ft | 0 kts | 249° |
| 2026-05-07 06:46 | 50.91101 | 4.49750 | 119 ft | 36 kts | 246° |
| 2026-05-07 06:46 | 50.90892 | 4.49030 | 117 ft | 104 kts | 245° |
| 2026-05-07 06:46 | 50.90511 | 4.47709 | 124 ft | 157 kts | 245° |
| 2026-05-07 06:46 | 50.90012 | 4.45991 | 391 ft | 177 kts | 248° |
| 2026-05-07 06:47 | 50.89511 | 4.44232 | 1075 ft | 177 kts | 247° |
| 2026-05-07 06:47 | 50.89001 | 4.42428 | 1760 ft | 178 kts | 246° |
| 2026-05-07 06:47 | 50.88227 | 4.40876 | 2132 ft | 194 kts | 207° |
| 2026-05-07 06:47 | 50.86843 | 4.40595 | 2387 ft | 213 kts | 160° |
| 2026-05-07 06:48 | 50.85585 | 4.41953 | 2703 ft | 232 kts | 131° |
| 2026-05-07 06:48 | 50.84520 | 4.44023 | 3136 ft | 253 kts | 124° |
| 2026-05-07 06:48 | 50.83502 | 4.46300 | 3900 ft | 260 kts | 123° |
| 2026-05-07 06:48 | 50.82457 | 4.48665 | 4752 ft | 264 kts | 123° |
| 2026-05-07 06:49 | 50.81374 | 4.51044 | 5574 ft | 268 kts | 125° |
| 2026-05-07 06:49 | 50.80252 | 4.53429 | 6402 ft | 273 kts | 127° |
| 2026-05-07 06:49 | 50.79089 | 4.55831 | 7168 ft | 276 kts | 128° |
| 2026-05-07 06:49 | 50.77901 | 4.58238 | 7949 ft | 280 kts | 128° |
| 2026-05-07 06:50 | 50.76689 | 4.60675 | 8693 ft | 285 kts | 128° |
| 2026-05-07 06:50 | 50.75452 | 4.63156 | 9437 ft | 289 kts | 128° |
| 2026-05-07 06:50 | 50.74177 | 4.65655 | 10168 ft | 294 kts | 130° |
| 2026-05-07 06:50 | 50.73281 | 4.67316 | 10397 ft | 307 kts | 131° |
| 2026-05-07 06:51 | 50.71813 | 4.69949 | 10569 ft | 330 kts | 131° |
| 2026-05-07 06:51 | 50.69847 | 4.73804 | 11117 ft | 347 kts | 122° |
| 2026-05-07 06:51 | 50.68760 | 4.77226 | 11758 ft | 352 kts | 110° |
| 2026-05-07 06:51 | 50.68011 | 4.80915 | 12439 ft | 355 kts | 107° |
| 2026-05-07 06:52 | 50.67280 | 4.84659 | 13101 ft | 359 kts | 107° |
| 2026-05-07 06:52 | 50.66783 | 4.87206 | 13552 ft | 362 kts | 107° |
| 2026-05-07 06:52 | 50.66039 | 4.91016 | 14168 ft | 366 kts | 107° |
| 2026-05-07 06:52 | 50.65287 | 4.94862 | 14759 ft | 369 kts | 107° |
| 2026-05-07 06:53 | 50.64535 | 4.98687 | 15346 ft | 372 kts | 108° |
| 2026-05-07 06:53 | 50.63766 | 5.02593 | 15936 ft | 375 kts | 108° |
| 2026-05-07 06:53 | 50.62986 | 5.06539 | 16528 ft | 378 kts | 108° |
| 2026-05-07 06:53 | 50.62198 | 5.10506 | 17112 ft | 381 kts | 108° |
| 2026-05-07 06:54 | 50.61403 | 5.14505 | 17694 ft | 384 kts | 108° |
| 2026-05-07 06:54 | 50.60599 | 5.18531 | 18293 ft | 387 kts | 108° |
| 2026-05-07 06:54 | 50.59785 | 5.22585 | 18796 ft | 390 kts | 108° |
| 2026-05-07 06:54 | 50.58953 | 5.26662 | 19301 ft | 393 kts | 111° |
| 2026-05-07 06:55 | 50.57585 | 5.30373 | 19772 ft | 394 kts | 133° |
| 2026-05-07 06:55 | 50.55575 | 5.33315 | 20270 ft | 396 kts | 140° |
| 2026-05-07 06:55 | 50.53506 | 5.36210 | 20781 ft | 399 kts | 139° |
| 2026-05-07 06:55 | 50.51441 | 5.39170 | 21278 ft | 402 kts | 138° |
| 2026-05-07 06:56 | 50.49383 | 5.42174 | 21769 ft | 405 kts | 137° |
| 2026-05-07 06:56 | 50.47321 | 5.45216 | 22242 ft | 408 kts | 137° |
| 2026-05-07 06:56 | 50.45245 | 5.48283 | 22704 ft | 411 kts | 137° |
| 2026-05-07 06:56 | 50.43144 | 5.51380 | 23155 ft | 414 kts | 138° |
| 2026-05-07 06:57 | 50.41034 | 5.54478 | 23591 ft | 417 kts | 138° |
| 2026-05-07 06:57 | 50.38908 | 5.57590 | 23962 ft | 419 kts | 137° |
| 2026-05-07 06:57 | 50.36767 | 5.60715 | 24337 ft | 422 kts | 137° |
| 2026-05-07 06:57 | 50.34639 | 5.63817 | 24696 ft | 424 kts | 137° |
| 2026-05-07 06:58 | 50.32470 | 5.66969 | 25060 ft | 426 kts | 137° |
| 2026-05-07 06:58 | 50.30292 | 5.70123 | 25403 ft | 428 kts | 137° |
| 2026-05-07 06:58 | 50.28144 | 5.73356 | 25735 ft | 430 kts | 132° |
| 2026-05-07 06:58 | 50.26301 | 5.77042 | 26069 ft | 432 kts | 122° |
| 2026-05-07 06:59 | 50.24863 | 5.81173 | 26410 ft | 433 kts | 113° |
| 2026-05-07 06:59 | 50.23880 | 5.85620 | 26728 ft | 434 kts | 104° |
| 2026-05-07 06:59 | 50.23122 | 5.90196 | 27044 ft | 436 kts | 104° |
| 2026-05-07 06:59 | 50.22355 | 5.94788 | 27360 ft | 438 kts | 104° |
| 2026-05-07 07:00 | 50.21579 | 5.99395 | 27686 ft | 440 kts | 104° |
| 2026-05-07 07:00 | 50.20795 | 6.04016 | 27978 ft | 442 kts | 104° |
| 2026-05-07 07:00 | 50.20002 | 6.08657 | 28276 ft | 443 kts | 104° |
| 2026-05-07 07:00 | 50.19203 | 6.13310 | 28586 ft | 444 kts | 104° |
| 2026-05-07 07:01 | 50.18603 | 6.18054 | 28855 ft | 445 kts | 95° |
| 2026-05-07 07:01 | 50.18468 | 6.22882 | 29123 ft | 446 kts | 86° |
| 2026-05-07 07:01 | 50.18731 | 6.27659 | 29376 ft | 446 kts | 83° |
| 2026-05-07 07:01 | 50.19043 | 6.32488 | 29633 ft | 448 kts | 83° |
| 2026-05-07 07:02 | 50.19351 | 6.37334 | 29885 ft | 449 kts | 83° |
| 2026-05-07 07:02 | 50.19652 | 6.42197 | 30113 ft | 451 kts | 83° |
| 2026-05-07 07:02 | 50.19948 | 6.47082 | 30274 ft | 453 kts | 84° |
| 2026-05-07 07:02 | 50.20242 | 6.51991 | 30440 ft | 455 kts | 84° |
| 2026-05-07 07:03 | 50.20536 | 6.56921 | 30648 ft | 456 kts | 84° |
| 2026-05-07 07:03 | 50.20829 | 6.61856 | 30912 ft | 455 kts | 84° |
| 2026-05-07 07:03 | 50.21121 | 6.66779 | 31149 ft | 455 kts | 84° |
| 2026-05-07 07:03 | 50.21415 | 6.71699 | 31419 ft | 455 kts | 83° |
| 2026-05-07 07:04 | 50.21707 | 6.76605 | 31657 ft | 455 kts | 84° |
| 2026-05-07 07:04 | 50.21999 | 6.81524 | 31912 ft | 455 kts | 84° |
| 2026-05-07 07:04 | 50.22103 | 6.86465 | 32178 ft | 455 kts | 92° |
| 2026-05-07 07:04 | 50.21865 | 6.91392 | 32413 ft | 455 kts | 94° |
| 2026-05-07 07:05 | 50.21606 | 6.96312 | 32678 ft | 454 kts | 94° |
| 2026-05-07 07:05 | 50.21348 | 7.01222 | 32905 ft | 455 kts | 94° |
| 2026-05-07 07:05 | 50.21087 | 7.06146 | 33152 ft | 454 kts | 95° |
| 2026-05-07 07:05 | 50.20825 | 7.11062 | 33416 ft | 454 kts | 95° |
| 2026-05-07 07:06 | 50.20562 | 7.15974 | 33642 ft | 454 kts | 95° |
| 2026-05-07 07:06 | 50.20300 | 7.20874 | 33905 ft | 454 kts | 95° |
| 2026-05-07 07:06 | 50.20033 | 7.25790 | 34116 ft | 454 kts | 95° |
| 2026-05-07 07:06 | 50.19764 | 7.30692 | 34292 ft | 454 kts | 95° |
| 2026-05-07 07:07 | 50.19465 | 7.35600 | 34496 ft | 454 kts | 97° |
| 2026-05-07 07:07 | 50.19083 | 7.40499 | 34657 ft | 455 kts | 98° |
| 2026-05-07 07:07 | 50.18638 | 7.45393 | 34826 ft | 455 kts | 99° |
| 2026-05-07 07:07 | 50.18160 | 7.50280 | 34959 ft | 456 kts | 99° |